Paradise Pines, California
Current Conditions -  °F | °C
As of 3:53 PM on Thursday 18 Dec 2014 (Local Time) from KOVE Reporting Station
Overcast Overcast  
Wind Chill: 57°   Ceiling: 4800
Heat Index: 57°   Visibility: 10mi
Dew Point: 46°   Wind: 7mph
Humidity: 67%   Direction: 160°SSE
Pressure: 30.16"   Gusts: NA
Location:  39.9524°N, 121.504°W
Report Text: KOVE 182353Z AUTO 16006KT 10SM OVC048 14/08 A3016 RMK AO2 SLP215 T01390078 10150 20122 56007
Loading
Personal Weather Stations






























Interactive Weather Map New forecast layout! Learn more

10-Day Weather Forecast

Advertisements
Track Severe Weather on mobile